Terminal Aerodrome Forecast
Issued by NWS

Home | Current Version | Previous Version | Text Only | Print | Product List | Glossary On
Versions: 1 2 3 4 5 6 7 8 9 10 11 12 13 14 15 16 17 18
000
FTUS44 KEWX 251100
TAFSSF
TAF
KSSF 251130Z 2512/2612 25004KT P6SM SKC
     FM251400 18005KT P6SM SKC
     FM251700 18013G23KT P6SM FEW250
     FM260000 16009KT P6SM FEW250
     FM260900 15003KT P6SM OVC020=

USA.gov is the U.S. government's official web portal to all federal, state and local government web resources and services.